Aviation Digital Data Service (ADDS)

Output produced by METARs form (1631 UTC 23 February 2017)
found at http://aviationweather.gov/adds/metars/
 
KBPT 231553Z 18010KT 10SM CLR 22/15 A2982 RMK AO2 SLP097 T02220150 $